Time;durP1;ratioP1;P1;durP2;ratioP2;P2;SDS_P1;SDS_P2;PMS_P1;PMS_P2;Temp;Humidity;BMP_temperature;BMP_pressure;BME280_temperature;BME280_humidity;BME280_pressure;Samples;Min_cycle;Max_cycle;Signal;HPM_P1;HPM_P2
2023/07/03 00:00:11;;;;;;;11.88;4.60;;;15.70;99.90;;;;;;4915257;29;20035;-54
2023/07/03 00:02:38;;;;;;;17.45;4.50;;;15.70;99.90;;;;;;4915359;29;20051;-55
2023/07/03 00:05:06;;;;;;;13.85;4.63;;;15.70;99.90;;;;;;4900106;29;20043;-54
2023/07/03 00:07:33;;;;;;;13.02;4.35;;;15.70;99.90;;;;;;4914090;29;20044;-55
2023/07/03 00:09:58;;;;;;;14.40;4.45;;;15.70;99.90;;;;;;4903592;29;20118;-55
2023/07/03 00:12:24;;;;;;;13.68;4.22;;;15.70;99.90;;;;;;4914828;29;20044;-55
2023/07/03 00:14:50;;;;;;;15.82;4.65;;;15.70;99.90;;;;;;4914996;29;20089;-54
2023/07/03 00:17:16;;;;;;;17.50;4.57;;;15.70;99.90;;;;;;4915607;29;20042;-55
2023/07/03 00:19:42;;;;;;;13.02;4.22;;;15.70;99.90;;;;;;4918138;29;20048;-53
2023/07/03 00:22:08;;;;;;;16.38;4.70;;;15.70;99.90;;;;;;4920240;29;20138;-53
2023/07/03 00:24:33;;;;;;;14.52;4.30;;;15.70;99.90;;;;;;4911541;29;20181;-55
2023/07/03 00:27:00;;;;;;;11.85;4.53;;;15.70;99.90;;;;;;4916936;29;20080;-55
2023/07/03 00:29:30;;;;;;;15.55;5.00;;;15.70;99.90;;;;;;4922101;29;20044;-54
2023/07/03 00:31:57;;;;;;;13.48;4.57;;;15.70;99.90;;;;;;4915821;29;20050;-54
2023/07/03 00:34:23;;;;;;;12.95;4.15;;;15.70;99.90;;;;;;4902494;29;20094;-53
2023/07/03 00:36:49;;;;;;;13.10;3.88;;;15.70;99.90;;;;;;4916145;29;20046;-53
2023/07/03 00:39:14;;;;;;;14.27;4.40;;;15.70;99.90;;;;;;4914066;29;20047;-56
2023/07/03 00:41:41;;;;;;;21.80;4.68;;;15.70;99.90;;;;;;4932095;28;20095;-54
2023/07/03 00:44:13;;;;;;;17.00;4.60;;;15.70;99.90;;;;;;4932696;28;20582;-55
2023/07/03 00:46:41;;;;;;;12.18;4.10;;;15.70;99.90;;;;;;4919215;29;20074;-54
2023/07/03 00:49:09;;;;;;;15.68;4.25;;;15.70;99.90;;;;;;4926000;28;20062;-54
2023/07/03 00:51:40;;;;;;;17.63;4.53;;;15.70;99.90;;;;;;4926807;28;20050;-55
2023/07/03 00:54:05;;;;;;;17.52;4.32;;;15.70;99.90;;;;;;4936382;28;20039;-53
2023/07/03 00:56:31;;;;;;;14.18;4.05;;;15.70;99.90;;;;;;4924777;29;20118;-54
2023/07/03 00:58:57;;;;;;;16.63;4.63;;;15.70;99.90;;;;;;4938142;28;20055;-56
2023/07/03 01:01:26;;;;;;;13.15;4.20;;;15.70;99.90;;;;;;4934374;28;20038;-53
2023/07/03 01:04:00;;;;;;;14.73;4.50;;;15.70;99.90;;;;;;4934380;28;20078;-55
2023/07/03 01:06:31;;;;;;;16.70;4.63;;;15.70;99.90;;;;;;4939178;28;20044;-50
2023/07/03 01:08:59;;;;;;;15.55;4.40;;;15.70;99.90;;;;;;4939741;28;20040;-53
2023/07/03 01:11:26;;;;;;;15.32;4.68;;;15.70;99.90;;;;;;4937048;28;20046;-51
2023/07/03 01:13:56;;;;;;;13.80;4.47;;;15.70;99.90;;;;;;4903920;29;20047;-52
2023/07/03 01:16:22;;;;;;;14.95;4.45;;;15.60;99.90;;;;;;4936446;28;20051;-54
2023/07/03 01:18:53;;;;;;;21.27;4.70;;;15.60;99.90;;;;;;4938065;28;20113;-53
2023/07/03 01:21:35;;;;;;;12.70;4.75;;;15.60;99.90;;;;;;4936116;28;20046;-54
2023/07/03 01:24:13;;;;;;;14.93;4.18;;;15.60;99.90;;;;;;4920139;28;20142;-50
2023/07/03 01:26:41;;;;;;;14.07;3.50;;;15.60;99.90;;;;;;4938720;28;20122;-54
2023/07/03 01:29:09;;;;;;;9.82;3.60;;;15.60;99.90;;;;;;4934956;28;20046;-52
2023/07/03 01:31:36;;;;;;;12.18;4.00;;;15.60;99.90;;;;;;4935055;28;20054;-53
2023/07/03 01:34:04;;;;;;;14.60;4.07;;;15.50;99.90;;;;;;4923593;29;20070;-52
2023/07/03 01:36:31;;;;;;;11.15;4.05;;;15.60;99.90;;;;;;4938066;28;20257;-52
2023/07/03 01:38:59;;;;;;;15.02;4.13;;;15.50;99.90;;;;;;4938427;28;20051;-49
2023/07/03 01:41:26;;;;;;;15.10;4.80;;;15.50;99.90;;;;;;4936708;28;20431;-51
2023/07/03 01:43:53;;;;;;;13.50;4.28;;;15.50;99.90;;;;;;4936935;28;20086;-52
2023/07/03 01:46:19;;;;;;;11.75;4.13;;;15.50;99.90;;;;;;4922032;29;20039;-54
2023/07/03 01:48:44;;;;;;;15.63;4.10;;;15.50;99.90;;;;;;4935759;28;20043;-50
2023/07/03 01:51:18;;;;;;;11.77;3.63;;;15.50;99.90;;;;;;4928944;29;20483;-54
2023/07/03 01:54:09;;;;;;;10.10;3.65;;;15.50;99.90;;;;;;4922393;28;20043;-53
2023/07/03 01:56:39;;;;;;;11.23;3.25;;;15.60;99.90;;;;;;4928150;29;20475;-52
2023/07/03 01:59:14;;;;;;;12.93;3.38;;;15.50;99.90;;;;;;4934158;28;20066;-55
2023/07/03 02:01:48;;;;;;;8.85;3.15;;;15.50;99.90;;;;;;4939001;28;20115;-52
2023/07/03 02:04:23;;;;;;;7.22;3.00;;;15.50;99.90;;;;;;4936704;28;20043;-54
2023/07/03 02:06:52;;;;;;;9.38;3.00;;;15.50;99.90;;;;;;4937411;28;20077;-53
2023/07/03 02:09:18;;;;;;;11.23;3.03;;;15.40;99.90;;;;;;4928559;28;20166;-54
2023/07/03 02:11:52;;;;;;;12.48;3.53;;;15.40;99.90;;;;;;4940067;28;20079;-52
2023/07/03 02:14:18;;;;;;;10.55;3.67;;;15.40;99.90;;;;;;4938542;28;20040;-53
2023/07/03 02:16:47;;;;;;;11.48;3.28;;;15.30;99.90;;;;;;4934714;28;20047;-54
2023/07/03 02:19:15;;;;;;;14.00;3.58;;;15.30;99.90;;;;;;4921663;29;20039;-54
2023/07/03 02:21:44;;;;;;;11.43;3.00;;;15.20;99.90;;;;;;4921999;29;20609;-50
2023/07/03 02:24:11;;;;;;;13.40;3.45;;;15.20;99.90;;;;;;4921833;28;20070;-55
2023/07/03 02:26:37;;;;;;;11.35;3.05;;;15.10;99.90;;;;;;4938659;28;20495;-53
2023/07/03 02:29:03;;;;;;;9.30;3.42;;;15.10;99.90;;;;;;4938598;28;20051;-50
2023/07/03 02:31:29;;;;;;;7.75;3.40;;;15.00;99.90;;;;;;4927220;28;20047;-52
2023/07/03 02:33:54;;;;;;;10.30;3.08;;;15.00;99.90;;;;;;4938426;28;20035;-53
2023/07/03 02:36:20;;;;;;;11.88;3.47;;;15.00;99.90;;;;;;4924952;29;20406;-54
2023/07/03 02:38:46;;;;;;;13.88;3.13;;;14.90;99.90;;;;;;4943497;28;20122;-53
2023/07/03 02:41:12;;;;;;;12.15;3.22;;;14.90;99.90;;;;;;4941552;28;20063;-51
2023/07/03 02:43:37;;;;;;;8.32;2.50;;;14.80;99.90;;;;;;4940817;28;20039;-53
2023/07/03 02:46:05;;;;;;;13.27;2.55;;;14.80;99.90;;;;;;4925328;28;20507;-50
2023/07/03 02:48:31;;;;;;;11.57;3.13;;;14.70;99.90;;;;;;4933216;28;20066;-53
2023/07/03 02:50:56;;;;;;;8.65;2.92;;;14.70;99.90;;;;;;4949510;28;20051;-52
2023/07/03 02:53:22;;;;;;;11.05;2.78;;;14.70;99.90;;;;;;4937314;28;20047;-54
2023/07/03 02:55:54;;;;;;;10.60;2.60;;;14.70;99.90;;;;;;4939843;28;20039;-53
2023/07/03 02:58:19;;;;;;;14.75;2.55;;;14.60;99.90;;;;;;4933458;28;20047;-53
2023/07/03 03:00:46;;;;;;;11.43;3.45;;;14.60;99.90;;;;;;4935185;28;20051;-51
2023/07/03 03:03:13;;;;;;;11.63;2.83;;;14.50;99.90;;;;;;4935439;28;20058;-51
2023/07/03 03:05:39;;;;;;;9.88;2.53;;;14.50;99.90;;;;;;4922414;29;20054;-52
2023/07/03 03:08:07;;;;;;;7.90;2.10;;;14.50;99.90;;;;;;4918400;28;20420;-55
2023/07/03 03:10:33;;;;;;;11.05;2.30;;;14.40;99.90;;;;;;4935957;28;20066;-50
2023/07/03 03:12:59;;;;;;;11.07;2.50;;;14.40;99.90;;;;;;4933323;28;20023;-51
2023/07/03 03:15:26;;;;;;;9.60;2.55;;;14.40;99.90;;;;;;4929264;28;20079;-49
2023/07/03 03:17:52;;;;;;;12.25;3.17;;;14.30;99.90;;;;;;4938595;28;20039;-55
2023/07/03 03:20:18;;;;;;;11.55;3.13;;;14.30;99.90;;;;;;4939241;28;20039;-53
2023/07/03 03:22:44;;;;;;;11.13;2.70;;;14.30;99.90;;;;;;4942261;28;20130;-53
2023/07/03 03:25:10;;;;;;;11.15;2.50;;;14.30;99.90;;;;;;4925007;28;20472;-52
2023/07/03 03:27:35;;;;;;;10.45;2.30;;;14.20;99.90;;;;;;4941883;28;20515;-53
2023/07/03 03:30:01;;;;;;;8.63;2.33;;;14.20;99.90;;;;;;4922955;29;20126;-53
2023/07/03 03:32:28;;;;;;;14.23;3.33;;;14.20;99.90;;;;;;4941117;28;20441;-51
2023/07/03 03:34:56;;;;;;;13.68;3.03;;;14.20;99.90;;;;;;4926051;28;20048;-55
2023/07/03 03:37:21;;;;;;;11.43;2.80;;;14.10;99.90;;;;;;4943919;29;20122;-52
2023/07/03 03:39:47;;;;;;;11.55;2.92;;;14.10;99.90;;;;;;4941474;28;20126;-54
2023/07/03 03:42:13;;;;;;;9.90;2.30;;;14.10;99.90;;;;;;4943206;28;20070;-54
2023/07/03 03:44:38;;;;;;;8.70;2.33;;;14.10;99.90;;;;;;4940811;28;20429;-55
2023/07/03 03:47:04;;;;;;;11.80;2.78;;;14.10;99.90;;;;;;4924088;29;20094;-50
2023/07/03 03:49:31;;;;;;;7.60;2.17;;;14.00;99.90;;;;;;4942437;29;20062;-52
2023/07/03 03:51:57;;;;;;;12.75;2.78;;;14.00;99.90;;;;;;4941631;29;20040;-55
2023/07/03 03:54:27;;;;;;;8.80;2.58;;;14.00;99.90;;;;;;4941281;28;20037;-53
2023/07/03 03:56:53;;;;;;;10.65;2.55;;;14.00;99.90;;;;;;4941923;29;20111;-51
2023/07/03 03:59:21;;;;;;;11.57;2.58;;;14.00;99.90;;;;;;4938085;28;20040;-51
2023/07/03 04:01:48;;;;;;;13.40;2.40;;;14.00;99.90;;;;;;4940037;28;20079;-53
2023/07/03 04:04:14;;;;;;;13.38;2.20;;;14.00;99.90;;;;;;4939581;28;20047;-52
2023/07/03 04:06:40;;;;;;;9.77;2.17;;;14.00;99.90;;;;;;4940810;28;20106;-53
2023/07/03 04:09:07;;;;;;;15.80;2.83;;;14.00;99.90;;;;;;4922924;29;20035;-53
2023/07/03 04:11:34;;;;;;;9.85;2.30;;;14.00;99.90;;;;;;4941111;28;20181;-52
2023/07/03 04:13:59;;;;;;;11.63;2.47;;;14.00;99.90;;;;;;4923770;28;20134;-53
2023/07/03 04:16:28;;;;;;;14.98;2.72;;;14.10;99.90;;;;;;4940984;28;20114;-50
2023/07/03 04:18:54;;;;;;;9.85;2.10;;;14.10;99.90;;;;;;4938818;28;20035;-54
2023/07/03 04:21:20;;;;;;;11.52;2.50;;;14.00;99.90;;;;;;4920592;29;20047;-54
2023/07/03 04:23:46;;;;;;;10.38;2.45;;;14.10;99.90;;;;;;4940653;29;20131;-54
2023/07/03 04:26:12;;;;;;;7.70;2.28;;;14.10;99.90;;;;;;4937759;28;20040;-52
2023/07/03 04:28:38;;;;;;;13.23;2.25;;;14.10;99.90;;;;;;4939105;28;20110;-53
2023/07/03 04:31:03;;;;;;;7.40;2.22;;;14.10;99.90;;;;;;4939118;28;20082;-55
2023/07/03 04:33:29;;;;;;;12.18;2.28;;;14.20;99.90;;;;;;4941157;28;20046;-53
2023/07/03 04:35:55;;;;;;;12.73;2.70;;;14.30;99.90;;;;;;4942257;28;20113;-52
2023/07/03 04:38:23;;;;;;;12.27;2.60;;;14.30;99.90;;;;;;4938257;28;20043;-50
2023/07/03 04:40:49;;;;;;;10.38;2.63;;;14.40;99.90;;;;;;4926109;28;20047;-51
2023/07/03 04:43:15;;;;;;;10.60;2.67;;;14.40;99.90;;;;;;4936114;28;20096;-52
2023/07/03 04:45:50;;;;;;;16.30;2.40;;;14.40;99.90;;;;;;4938028;28;20062;-51
2023/07/03 04:48:16;;;;;;;10.15;2.40;;;14.40;99.90;;;;;;4930816;28;20047;-50
2023/07/03 04:50:45;;;;;;;16.50;2.95;;;14.50;99.90;;;;;;4937522;28;20043;-54
2023/07/03 04:53:12;;;;;;;11.05;2.60;;;14.40;99.90;;;;;;4936864;28;20043;-50
2023/07/03 04:55:38;;;;;;;13.15;2.92;;;14.50;99.90;;;;;;4937727;28;20106;-50
2023/07/03 04:58:04;;;;;;;11.65;2.50;;;14.50;99.90;;;;;;4917301;29;20150;-55
2023/07/03 05:00:31;;;;;;;8.25;2.15;;;14.50;99.90;;;;;;4936183;29;20189;-54
2023/07/03 05:03:03;;;;;;;14.45;2.95;;;14.60;99.90;;;;;;4932373;28;20925;-50
2023/07/03 05:05:29;;;;;;;14.60;2.97;;;14.60;99.90;;;;;;4931300;28;20127;-50
2023/07/03 05:07:55;;;;;;;11.75;2.58;;;14.60;99.90;;;;;;4933813;28;20126;-55
2023/07/03 05:10:22;;;;;;;10.55;2.40;;;14.70;99.90;;;;;;4909348;29;20134;-54
2023/07/03 05:12:49;;;;;;;11.02;2.58;;;14.70;99.90;;;;;;4935823;28;20039;-55
2023/07/03 05:15:17;;;;;;;8.82;2.50;;;14.90;99.90;;;;;;4925125;28;20047;-55
2023/07/03 05:17:47;;;;;;;10.70;2.17;;;14.90;99.90;;;;;;4901175;28;20357;-54
2023/07/03 05:20:15;;;;;;;10.00;2.35;;;15.00;99.90;;;;;;4926644;28;20361;-53
2023/07/03 05:22:42;;;;;;;7.18;2.10;;;15.10;99.90;;;;;;4915303;29;20047;-54
2023/07/03 05:25:11;;;;;;;10.75;2.38;;;15.20;99.90;;;;;;4932956;28;20039;-52
2023/07/03 05:27:38;;;;;;;10.75;2.40;;;15.30;99.90;;;;;;4932226;28;20645;-53
2023/07/03 05:30:05;;;;;;;11.07;2.20;;;15.30;99.90;;;;;;4928906;28;20075;-54
2023/07/03 05:32:31;;;;;;;11.13;2.42;;;15.40;99.90;;;;;;4899158;29;20055;-53
2023/07/03 05:34:57;;;;;;;13.63;2.75;;;15.50;99.90;;;;;;4915519;29;20093;-54
2023/07/03 05:37:23;;;;;;;12.63;2.60;;;15.60;99.90;;;;;;4932217;29;20066;-50
2023/07/03 05:39:49;;;;;;;7.60;1.90;;;15.60;99.90;;;;;;4917964;29;20055;-52
2023/07/03 05:42:18;;;;;;;15.13;2.28;;;15.70;99.90;;;;;;4902463;29;20051;-55
2023/07/03 05:44:45;;;;;;;13.00;2.67;;;15.70;99.90;;;;;;4931320;28;20416;-54
2023/07/03 05:47:11;;;;;;;13.55;2.95;;;15.70;99.90;;;;;;4935600;28;20055;-56
2023/07/03 05:49:37;;;;;;;10.82;2.85;;;15.70;99.90;;;;;;4938508;28;20138;-51
2023/07/03 05:52:03;;;;;;;12.70;2.15;;;15.60;99.90;;;;;;4935082;28;20115;-53
2023/07/03 05:54:29;;;;;;;9.40;2.38;;;15.60;99.90;;;;;;4938120;29;20043;-51
2023/07/03 05:56:59;;;;;;;10.70;2.30;;;15.60;99.90;;;;;;4940595;28;20035;-54
2023/07/03 05:59:26;;;;;;;11.48;2.55;;;15.50;99.90;;;;;;4920340;29;20075;-55
2023/07/03 06:01:55;;;;;;;9.30;2.40;;;15.50;99.90;;;;;;4936945;28;20050;-53
2023/07/03 06:04:22;;;;;;;10.05;2.50;;;15.50;99.90;;;;;;4921312;28;20054;-55
2023/07/03 06:06:57;;;;;;;11.27;2.28;;;15.50;99.90;;;;;;4936125;28;20134;-52
2023/07/03 06:09:24;;;;;;;8.70;2.00;;;15.50;99.90;;;;;;4927549;28;20047;-57
2023/07/03 06:11:49;;;;;;;8.70;2.42;;;15.60;99.90;;;;;;4933532;28;20538;-58
2023/07/03 06:14:17;;;;;;;9.38;2.28;;;15.70;99.90;;;;;;4919586;29;20041;-57
2023/07/03 06:16:48;;;;;;;10.43;2.58;;;15.80;99.90;;;;;;4942085;29;20508;-57
2023/07/03 06:19:15;;;;;;;11.60;2.38;;;15.90;99.90;;;;;;4941188;28;20115;-57
2023/07/03 06:21:41;;;;;;;11.57;2.40;;;15.90;99.90;;;;;;4941644;28;20050;-57
2023/07/03 06:24:12;;;;;;;10.45;2.55;;;16.00;99.90;;;;;;4941763;28;21618;-57
2023/07/03 06:26:39;;;;;;;13.10;2.50;;;16.10;99.90;;;;;;4940860;28;20181;-57
2023/07/03 06:29:09;;;;;;;15.75;2.78;;;16.30;99.90;;;;;;4941504;29;20436;-57
2023/07/03 06:31:35;;;;;;;10.20;1.92;;;16.40;99.90;;;;;;4939716;28;20785;-57
2023/07/03 06:34:03;;;;;;;11.65;2.42;;;16.60;99.90;;;;;;4940452;28;20209;-57
2023/07/03 06:36:29;;;;;;;9.25;1.75;;;16.80;99.90;;;;;;4940729;28;20052;-57
2023/07/03 06:38:57;;;;;;;8.38;2.13;;;16.90;99.90;;;;;;4941298;28;20071;-57
2023/07/03 06:41:27;;;;;;;12.25;2.53;;;16.90;99.90;;;;;;4940508;28;20141;-57
2023/07/03 06:43:53;;;;;;;4.72;1.55;;;16.90;99.90;;;;;;4937756;28;20059;-58
2023/07/03 06:46:19;;;;;;;7.80;1.75;;;16.90;99.90;;;;;;4938461;28;20047;-58
2023/07/03 06:48:45;;;;;;;13.57;2.17;;;16.80;99.90;;;;;;4927884;29;20138;-57
2023/07/03 06:51:12;;;;;;;8.65;2.03;;;16.70;99.90;;;;;;4922199;29;20571;-57
2023/07/03 06:53:39;;;;;;;9.07;2.30;;;16.50;99.90;;;;;;4941063;28;20118;-57
2023/07/03 06:56:05;;;;;;;13.10;2.80;;;16.30;99.90;;;;;;4941694;29;20941;-57
2023/07/03 06:58:32;;;;;;;8.95;2.30;;;16.20;99.90;;;;;;4936530;28;20052;-58
2023/07/03 07:01:09;;;;;;;8.13;2.20;;;16.20;99.90;;;;;;4936976;28;20575;-57
2023/07/03 07:03:35;;;;;;;8.98;2.03;;;16.10;99.90;;;;;;4926512;28;20423;-57
2023/07/03 07:06:12;;;;;;;9.68;2.20;;;16.00;99.90;;;;;;4917375;28;20058;-57
2023/07/03 07:08:38;;;;;;;14.30;2.55;;;16.00;99.90;;;;;;4938229;29;20050;-57
2023/07/03 07:11:12;;;;;;;11.73;2.30;;;15.90;99.90;;;;;;4941137;28;20514;-57
2023/07/03 07:13:43;;;;;;;7.78;2.08;;;15.90;99.90;;;;;;4938887;28;20708;-57
2023/07/03 07:16:21;;;;;;;8.57;2.50;;;15.90;99.90;;;;;;4940553;28;20039;-57
2023/07/03 07:18:52;;;;;;;14.75;2.60;;;16.00;99.90;;;;;;4940139;28;20039;-58
2023/07/03 07:21:18;;;;;;;8.25;2.40;;;16.20;99.90;;;;;;4923825;29;20079;-57
2023/07/03 07:24:03;;;;;;;7.15;1.98;;;16.40;99.90;;;;;;4941104;28;20105;-57
2023/07/03 07:26:33;;;;;;;10.70;1.95;;;16.60;99.90;;;;;;4943273;28;20168;-57
2023/07/03 07:29:00;;;;;;;9.60;1.85;;;16.70;99.90;;;;;;4943799;28;20043;-57
2023/07/03 07:31:28;;;;;;;7.97;2.13;;;16.80;99.90;;;;;;4942745;28;20524;-57
2023/07/03 07:33:53;;;;;;;12.23;1.83;;;16.70;99.90;;;;;;4943424;28;21838;-57
2023/07/03 07:36:21;;;;;;;8.77;1.80;;;16.70;99.90;;;;;;4941649;29;20098;-57
2023/07/03 07:38:52;;;;;;;9.68;2.53;;;16.60;99.90;;;;;;4938694;29;20111;-57
2023/07/03 07:41:18;;;;;;;8.35;1.77;;;16.60;99.90;;;;;;4913512;29;20066;-57
2023/07/03 07:43:46;;;;;;;7.45;1.80;;;16.70;99.90;;;;;;4940992;28;20393;-58
2023/07/03 07:46:12;;;;;;;11.93;2.28;;;16.70;99.90;;;;;;4943702;28;20511;-58
2023/07/03 07:48:37;;;;;;;10.63;2.35;;;16.70;99.90;;;;;;4939950;28;20043;-56
2023/07/03 07:51:08;;;;;;;10.57;3.22;;;16.70;99.90;;;;;;4928353;29;20106;-57
2023/07/03 07:53:33;;;;;;;8.43;2.20;;;16.80;99.90;;;;;;4942782;28;20031;-57
2023/07/03 07:55:59;;;;;;;8.52;2.30;;;16.90;99.90;;;;;;4943141;28;20149;-57
2023/07/03 07:58:26;;;;;;;9.68;1.92;;;17.00;99.90;;;;;;4941617;28;20031;-57
2023/07/03 08:00:53;;;;;;;6.25;1.92;;;17.20;99.90;;;;;;4942712;28;20043;-57
2023/07/03 08:03:19;;;;;;;8.55;2.10;;;17.30;99.90;;;;;;4943705;28;20042;-57
2023/07/03 08:05:45;;;;;;;10.32;2.15;;;17.40;99.90;;;;;;4940910;28;20125;-58
2023/07/03 08:08:10;;;;;;;11.15;2.28;;;17.40;99.90;;;;;;4943495;28;20040;-57
2023/07/03 08:10:37;;;;;;;8.10;1.80;;;17.50;99.90;;;;;;4943107;29;20039;-57
2023/07/03 08:13:03;;;;;;;9.05;2.28;;;17.70;99.90;;;;;;4939894;28;20101;-57
2023/07/03 08:15:29;;;;;;;8.15;1.92;;;17.90;99.90;;;;;;4943084;28;20047;-58
2023/07/03 08:17:55;;;;;;;4.55;1.52;;;18.10;99.90;;;;;;4942738;28;20044;-56
2023/07/03 08:20:21;;;;;;;5.38;1.55;;;18.20;99.90;;;;;;4943630;28;20047;-57
2023/07/03 08:22:47;;;;;;;6.75;1.50;;;18.10;99.90;;;;;;4924133;29;20051;-57
2023/07/03 08:25:13;;;;;;;8.57;1.73;;;18.10;99.90;;;;;;4942490;28;20048;-58
2023/07/03 08:27:43;;;;;;;6.68;1.40;;;18.00;99.90;;;;;;4931087;29;20036;-57
2023/07/03 08:30:09;;;;;;;9.02;1.52;;;18.00;99.90;;;;;;4931969;28;20114;-56
2023/07/03 08:32:35;;;;;;;4.28;1.20;;;17.90;99.30;;;;;;4943400;29;20051;-57
2023/07/03 08:35:00;;;;;;;8.23;1.42;;;17.80;98.90;;;;;;4938297;28;20046;-57
2023/07/03 08:37:26;;;;;;;7.82;1.40;;;17.80;98.80;;;;;;4946802;28;20035;-58
2023/07/03 08:39:52;;;;;;;4.57;1.30;;;17.80;99.20;;;;;;4941989;28;20046;-57
2023/07/03 08:42:38;;;;;;;6.88;1.40;;;17.90;98.70;;;;;;4931610;29;20058;-58
2023/07/03 08:45:07;;;;;;;6.53;1.60;;;18.00;98.40;;;;;;4941001;28;20139;-58
2023/07/03 08:47:34;;;;;;;7.40;1.60;;;18.10;98.50;;;;;;4940816;28;20047;-56
2023/07/03 08:50:03;;;;;;;8.23;1.70;;;18.10;98.20;;;;;;4941474;28;20046;-58
2023/07/03 08:52:41;;;;;;;5.07;1.33;;;18.20;98.10;;;;;;4942103;28;20086;-57
2023/07/03 08:55:13;;;;;;;6.93;1.35;;;18.40;97.90;;;;;;4943029;28;20048;-57
2023/07/03 08:57:39;;;;;;;5.32;1.33;;;18.50;97.10;;;;;;4942422;29;20043;-58
2023/07/03 09:00:10;;;;;;;6.30;1.48;;;18.50;96.60;;;;;;4936983;28;20508;-57
2023/07/03 09:02:50;;;;;;;4.45;1.58;;;18.50;95.70;;;;;;4930573;28;20500;-56
2023/07/03 09:05:46;;;;;;;4.75;1.25;;;18.40;95.30;;;;;;4936752;29;20071;-57
2023/07/03 09:08:23;;;;;;;7.60;1.70;;;18.20;95.40;;;;;;4938056;28;20042;-58
2023/07/03 09:10:49;;;;;;;6.30;1.30;;;18.00;95.70;;;;;;4934654;28;20130;-57
2023/07/03 09:13:28;;;;;;;4.53;1.15;;;17.80;96.00;;;;;;4920644;29;20035;-58
2023/07/03 09:16:09;;;;;;;6.10;1.40;;;17.80;96.30;;;;;;4936616;28;20053;-57
2023/07/03 09:18:45;;;;;;;7.70;1.30;;;18.00;96.80;;;;;;4937005;28;20492;-57
2023/07/03 09:21:11;;;;;;;10.60;1.60;;;18.20;96.80;;;;;;4937923;28;20134;-57
2023/07/03 09:23:46;;;;;;;5.82;1.40;;;18.30;96.40;;;;;;4912070;28;20130;-58
2023/07/03 09:26:21;;;;;;;3.33;1.27;;;18.30;96.50;;;;;;4939954;28;20047;-58
2023/07/03 09:28:49;;;;;;;7.15;1.27;;;18.20;96.10;;;;;;4934618;28;20051;-58
2023/07/03 09:31:16;;;;;;;8.63;1.40;;;18.20;96.40;;;;;;4938409;28;20130;-57
2023/07/03 09:33:42;;;;;;;7.45;1.48;;;18.10;96.50;;;;;;4942419;29;20047;-57
2023/07/03 09:36:37;;;;;;;3.70;1.35;;;18.30;96.60;;;;;;4940212;28;20095;-58
2023/07/03 09:39:23;;;;;;;6.68;1.63;;;18.40;96.30;;;;;;4938961;29;20039;-57
2023/07/03 09:41:48;;;;;;;6.10;1.30;;;18.40;96.40;;;;;;4939492;29;20047;-58
2023/07/03 09:44:18;;;;;;;4.60;1.20;;;18.50;96.60;;;;;;4921140;29;20059;-58
2023/07/03 09:46:45;;;;;;;7.32;1.20;;;18.50;96.40;;;;;;4933844;28;20169;-57
2023/07/03 09:49:19;;;;;;;6.60;1.38;;;18.40;96.40;;;;;;4911267;29;20538;-58
2023/07/03 09:51:50;;;;;;;7.85;1.20;;;18.30;96.40;;;;;;4938851;28;20380;-58
2023/07/03 09:54:23;;;;;;;6.20;1.40;;;18.30;96.60;;;;;;4939567;29;20054;-58
2023/07/03 09:56:49;;;;;;;;;;;18.30;96.60;;;;;;4937334;28;20117;-57
2023/07/03 09:59:22;;;;;;;6.53;1.30;;;18.20;96.90;;;;;;4938662;29;19973;-58
2023/07/03 10:01:53;;;;;;;3.53;1.40;;;18.20;97.20;;;;;;4921309;29;20047;-57
2023/07/03 10:04:19;;;;;;;4.35;1.13;;;18.20;97.50;;;;;;4928761;29;20427;-57
2023/07/03 10:07:00;;;;;;;5.55;1.55;;;18.10;97.20;;;;;;4939998;28;20055;-58
2023/07/03 10:09:38;;;;;;;4.57;1.00;;;18.10;97.00;;;;;;4924687;29;20054;-58
2023/07/03 10:12:23;;;;;;;6.68;1.40;;;18.00;97.10;;;;;;4936570;28;20062;-58
2023/07/03 10:14:57;;;;;;;2.92;1.20;;;18.10;97.20;;;;;;4941063;28;20071;-58
2023/07/03 10:17:45;;;;;;;6.15;1.38;;;18.20;97.50;;;;;;4940794;28;20410;-58
2023/07/03 10:20:19;;;;;;;4.70;1.80;;;18.20;97.60;;;;;;4941320;28;20492;-56
2023/07/03 10:22:46;;;;;;;3.72;1.38;;;18.20;97.90;;;;;;4940595;28;20054;-58
2023/07/03 10:25:26;;;;;;;5.72;1.33;;;18.20;98.40;;;;;;4940686;28;20082;-56
2023/07/03 10:27:58;;;;;;;4.90;1.50;;;18.20;98.50;;;;;;4937912;28;20047;-58
2023/07/03 10:30:27;;;;;;;4.20;1.00;;;18.20;98.40;;;;;;4936307;28;20075;-58
2023/07/03 10:32:56;;;;;;;5.28;1.25;;;18.20;98.50;;;;;;4937276;28;20047;-57
2023/07/03 10:35:27;;;;;;;6.25;1.35;;;18.40;98.80;;;;;;4936627;29;20050;-57
2023/07/03 10:38:26;;;;;;;6.85;1.92;;;18.70;98.50;;;;;;4936532;28;20711;-58
2023/07/03 10:41:17;;;;;;;6.68;1.60;;;18.80;98.00;;;;;;4936613;29;20071;-57
2023/07/03 10:43:54;;;;;;;7.00;1.55;;;18.70;97.40;;;;;;4933297;28;20064;-58
2023/07/03 10:46:49;;;;;;;6.13;1.70;;;18.60;97.20;;;;;;4934680;29;20213;-57
2023/07/03 10:49:24;;;;;;;5.00;1.33;;;18.40;97.50;;;;;;4931959;28;20108;-57
2023/07/03 10:52:07;;;;;;;4.50;1.40;;;18.30;97.80;;;;;;4937410;28;20054;-57
2023/07/03 10:54:41;;;;;;;4.55;1.52;;;18.10;98.00;;;;;;4919779;28;20043;-58
2023/07/03 10:57:11;;;;;;;5.05;1.73;;;17.90;98.50;;;;;;4911110;29;20158;-57
2023/07/03 10:59:43;;;;;;;2.92;1.30;;;17.80;99.10;;;;;;4936511;28;20080;-58
2023/07/03 11:02:34;;;;;;;3.60;1.23;;;17.80;99.40;;;;;;4938437;29;20591;-58
2023/07/03 11:05:12;;;;;;;6.97;1.67;;;17.90;99.90;;;;;;4938691;28;20095;-57
2023/07/03 11:07:45;;;;;;;6.03;1.85;;;18.00;99.60;;;;;;4937297;28;20126;-58
2023/07/03 11:10:31;;;;;;;5.55;1.65;;;18.30;99.50;;;;;;4938728;28;20043;-56
2023/07/03 11:13:23;;;;;;;4.20;1.50;;;18.50;99.20;;;;;;4929084;28;20480;-58
2023/07/03 11:16:13;;;;;;;7.10;1.45;;;18.60;98.80;;;;;;4939296;29;20059;-58
2023/07/03 11:19:01;;;;;;;6.43;1.70;;;18.70;98.90;;;;;;4939513;29;20106;-56
2023/07/03 11:21:38;;;;;;;7.13;1.90;;;18.90;98.70;;;;;;4920599;29;20525;-58
2023/07/03 11:24:30;;;;;;;7.35;1.50;;;19.20;98.80;;;;;;4943330;28;20516;-57
2023/07/03 11:27:18;;;;;;;8.85;3.45;;;19.50;97.80;;;;;;4943676;28;20048;-57
2023/07/03 11:29:44;;;;;;;6.13;2.42;;;19.70;97.00;;;;;;4944319;28;20058;-58
2023/07/03 11:32:13;;;;;;;6.35;1.98;;;19.60;96.20;;;;;;4941984;28;20044;-58
2023/07/03 11:34:39;;;;;;;7.65;1.50;;;19.50;95.50;;;;;;4942643;28;20032;-57
2023/07/03 11:37:31;;;;;;;6.07;1.48;;;19.40;95.10;;;;;;4945100;28;20091;-57
2023/07/03 11:39:57;;;;;;;4.00;1.40;;;19.20;94.70;;;;;;4945136;28;20408;-57
2023/07/03 11:42:25;;;;;;;6.50;1.30;;;19.10;94.60;;;;;;4941360;28;20106;-58
2023/07/03 11:45:00;;;;;;;6.68;1.80;;;18.90;94.50;;;;;;4943501;28;20074;-57
2023/07/03 11:47:30;;;;;;;7.95;1.80;;;18.80;94.60;;;;;;4943581;28;20053;-58
2023/07/03 11:50:02;;;;;;;6.20;1.70;;;18.70;94.70;;;;;;4944438;29;20533;-57
2023/07/03 11:52:35;;;;;;;5.47;1.80;;;18.60;94.30;;;;;;4924726;28;20122;-57
2023/07/03 11:55:01;;;;;;;;;;;18.50;94.20;;;;;;4944490;29;20122;-58
2023/07/03 11:57:34;;;;;;;5.20;1.30;;;18.40;94.40;;;;;;4942389;28;20014;-57
2023/07/03 12:00:14;;;;;;;6.35;1.65;;;18.40;94.20;;;;;;4941960;29;20043;-56
2023/07/03 12:02:41;;;;;;;4.45;1.50;;;18.60;94.30;;;;;;4940330;28;20472;-58
2023/07/03 12:05:09;;;;;;;10.07;1.35;;;18.90;94.10;;;;;;4943525;28;20098;-57
2023/07/03 12:07:35;;;;;;;6.53;1.27;;;19.30;93.50;;;;;;4944123;28;20502;-58
2023/07/03 12:10:21;;;;;;;9.45;1.40;;;19.50;92.70;;;;;;4914870;28;20046;-60
2023/07/03 12:13:35;;;;;;;5.60;1.20;;;19.50;92.00;;;;;;4937019;28;20047;-58
2023/07/03 12:16:05;;;;;;;5.68;1.35;;;19.40;91.70;;;;;;4938927;28;20385;-58
2023/07/03 12:18:33;;;;;;;6.47;1.50;;;19.20;91.30;;;;;;4926169;28;20049;-58
2023/07/03 12:21:03;;;;;;;4.75;1.17;;;19.10;91.10;;;;;;4922277;28;20043;-59
2023/07/03 12:23:37;;;;;;;4.28;1.38;;;19.00;90.80;;;;;;4937645;28;20083;-58
2023/07/03 12:26:06;;;;;;;5.20;1.17;;;18.90;90.90;;;;;;4937112;28;20059;-59
2023/07/03 12:28:32;;;;;;;4.40;1.13;;;18.80;90.70;;;;;;4937280;28;20051;-59
2023/07/03 12:31:13;;;;;;;4.05;1.42;;;18.70;90.90;;;;;;4938018;28;20551;-58
2023/07/03 12:33:59;;;;;;;5.25;1.15;;;18.70;90.80;;;;;;4935463;28;20044;-59
2023/07/03 12:36:26;;;;;;;5.03;1.23;;;18.60;90.90;;;;;;4936640;28;20046;-58
2023/07/03 12:38:53;;;;;;;4.13;1.20;;;18.50;90.80;;;;;;4938469;28;20403;-58
2023/07/03 12:41:28;;;;;;;5.63;1.58;;;18.50;90.80;;;;;;4935949;28;20057;-58
2023/07/03 12:43:54;;;;;;;4.68;1.52;;;18.40;90.70;;;;;;4916388;29;20142;-58
2023/07/03 12:46:45;;;;;;;5.82;1.50;;;18.40;90.80;;;;;;4936785;28;20499;-58
2023/07/03 12:49:17;;;;;;;7.65;1.73;;;18.40;91.00;;;;;;4937786;28;20055;-58
2023/07/03 12:51:48;;;;;;;5.78;1.63;;;18.40;91.20;;;;;;4935881;28;20043;-58
2023/07/03 12:54:14;;;;;;;5.75;1.40;;;18.40;91.70;;;;;;4937680;28;20091;-58
2023/07/03 12:56:41;;;;;;;3.10;1.23;;;18.50;91.60;;;;;;4936198;29;20570;-58